Time,TemperatureF,DewpointF,PressureIn,WindDirection,WindDirectionDegrees,WindSpeedMPH,WindSpeedGustMPH,Humidity,HourlyPrecipIn,Conditions,Clouds,dailyrainin,SoftwareType,DateUTC
2015-03-29 00:04:00,21.2,2.7,30.05,West,277,0.0,2.0,44,0.00,,FEW220,0.00,VWS V15.00,2015-03-29 04:04:00,
2015-03-29 00:09:00,20.9,2.4,30.05,West,276,1.0,3.0,44,0.00,,FEW220,0.00,VWS V15.00,2015-03-29 04:09:00,
2015-03-29 00:14:00,20.8,2.8,30.05,West,275,1.0,2.0,45,0.00,,FEW220,0.00,VWS V15.00,2015-03-29 04:14:00,
2015-03-29 00:19:00,20.6,2.2,30.04,West,273,0.0,3.0,44,0.00,,FEW220,0.00,VWS V15.00,2015-03-29 04:19:00,
2015-03-29 00:24:00,20.4,3.4,30.05,West,273,1.0,4.0,47,0.00,,FEW220,0.00,VWS V15.00,2015-03-29 04:24:00,
2015-03-29 00:29:00,20.2,1.8,30.05,West,273,1.0,4.0,44,0.00,,FEW220,0.00,VWS V15.00,2015-03-29 04:29:00,
2015-03-29 00:34:00,20.2,2.3,30.04,WSW,246,2.0,4.0,45,0.00,,FEW220,0.00,VWS V15.00,2015-03-29 04:34:00,
2015-03-29 00:39:00,20.1,1.7,30.04,WSW,257,1.0,4.0,44,0.00,,FEW220,0.00,VWS V15.00,2015-03-29 04:39:00,
2015-03-29 00:44:00,20.1,1.7,30.05,West,265,2.0,4.0,44,0.00,,FEW220,0.00,VWS V15.00,2015-03-29 04:44:00,
2015-03-29 00:49:00,20.2,1.3,30.05,West,271,3.0,7.0,43,0.00,,FEW220,0.00,VWS V15.00,2015-03-29 04:49:00,
2015-03-29 00:54:00,20.3,1.9,30.05,West,276,3.0,4.0,44,0.00,,FEW220,0.00,VWS V15.00,2015-03-29 04:54:00,
2015-03-29 01:00:00,20.2,1.8,30.05,West,277,3.0,4.0,44,0.00,,FEW220,0.00,VWS V15.00,2015-03-29 05:00:00,
2015-03-29 01:05:00,20.0,1.6,30.05,West,277,0.0,2.0,44,0.00,,FEW220,0.00,VWS V15.00,2015-03-29 05:05:00,
2015-03-29 01:10:00,20.0,1.6,30.05,West,277,1.0,2.0,44,0.00,,FEW220,0.00,VWS V15.00,2015-03-29 05:10:00,
2015-03-29 01:15:00,19.8,2.4,30.05,West,277,2.0,3.0,46,0.00,,FEW220,0.00,VWS V15.00,2015-03-29 05:15:00,
2015-03-29 01:20:00,19.7,1.8,30.05,West,277,3.0,4.0,45,0.00,,FEW220,0.00,VWS V15.00,2015-03-29 05:20:00,
2015-03-29 01:25:00,19.7,2.3,30.05,West,277,3.0,3.0,46,0.00,,FEW220,0.00,VWS V15.00,2015-03-29 05:25:00,
2015-03-29 01:30:00,19.6,2.2,30.05,WNW,283,4.0,4.0,46,0.00,,FEW220,0.00,VWS V15.00,2015-03-29 05:30:00,
2015-03-29 01:35:00,19.5,1.6,30.05,WNW,287,0.0,4.0,45,0.00,,FEW220,0.00,VWS V15.00,2015-03-29 05:35:00,
2015-03-29 01:40:00,19.4,1.5,30.05,WNW,283,3.0,4.0,45,0.00,,FEW220,0.00,VWS V15.00,2015-03-29 05:40:00,
2015-03-29 01:45:00,19.2,1.8,30.05,West,262,3.0,6.0,46,0.00,,FEW220,0.00,VWS V15.00,2015-03-29 05:45:00,
2015-03-29 01:50:00,19.0,1.6,30.05,West,270,2.0,6.0,46,0.00,,FEW220,0.00,VWS V15.00,2015-03-29 05:50:00,
2015-03-29 01:55:00,18.8,1.5,30.05,WSW,257,3.0,6.0,46,0.00,,FEW220,0.00,VWS V15.00,2015-03-29 05:55:00,
2015-03-29 02:00:00,18.7,1.8,30.05,West,264,3.0,6.0,47,0.00,,FEW220,0.00,VWS V15.00,2015-03-29 06:00:00,
2015-03-29 02:05:00,18.5,1.6,30.05,West,277,3.0,3.0,47,0.00,,FEW220,0.00,VWS V15.00,2015-03-29 06:05:00,
2015-03-29 02:10:00,18.4,2.0,30.06,West,277,2.0,4.0,48,0.00,,FEW220,0.00,VWS V15.00,2015-03-29 06:10:00,
2015-03-29 02:15:00,18.4,2.0,30.06,West,276,2.0,4.0,48,0.00,,FEW220,0.00,VWS V15.00,2015-03-29 06:15:00,
2015-03-29 02:20:00,18.2,1.8,30.06,West,276,2.0,4.0,48,0.00,,FEW220,0.00,VWS V15.00,2015-03-29 06:20:00,
2015-03-29 02:25:00,18.0,1.6,30.06,West,277,3.0,4.0,48,0.00,,FEW220,0.00,VWS V15.00,2015-03-29 06:25:00,
2015-03-29 02:30:00,17.9,1.5,30.06,WNW,290,2.0,7.0,48,0.00,,FEW220,0.00,VWS V15.00,2015-03-29 06:30:00,
2015-03-29 02:35:00,17.7,1.4,30.06,WNW,296,3.0,6.0,48,0.00,,FEW220,0.00,VWS V15.00,2015-03-29 06:35:00,
2015-03-29 02:40:00,17.7,0.9,30.06,WNW,292,3.0,6.0,47,0.00,,FEW220,0.00,VWS V15.00,2015-03-29 06:40:00,
2015-03-29 02:45:00,17.7,0.9,30.06,WNW,300,2.0,5.0,47,0.00,,FEW220,0.00,VWS V15.00,2015-03-29 06:45:00,
2015-03-29 02:50:00,17.7,0.9,30.06,WNW,300,2.0,5.0,47,0.00,,FEW220,0.00,VWS V15.00,2015-03-29 06:50:00,
2015-03-29 02:55:00,17.6,1.3,30.07,WNW,291,2.0,7.0,48,0.00,,FEW220,0.00,VWS V15.00,2015-03-29 06:55:00,
2015-03-29 03:00:00,17.5,1.2,30.06,West,275,2.0,7.0,48,0.00,,FEW220,0.00,VWS V15.00,2015-03-29 07:00:00,
2015-03-29 03:05:00,17.5,1.2,30.07,WNW,290,3.0,6.0,48,0.00,,FEW220,0.00,VWS V15.00,2015-03-29 07:05:00,
2015-03-29 03:10:00,17.3,1.0,30.06,WNW,282,2.0,2.0,48,0.00,,FEW220,0.00,VWS V15.00,2015-03-29 07:10:00,
2015-03-29 03:15:00,17.2,1.3,30.06,WNW,282,2.0,6.0,49,0.00,,FEW220,0.00,VWS V15.00,2015-03-29 07:15:00,
2015-03-29 03:20:00,17.1,1.2,30.07,WNW,282,2.0,3.0,49,0.00,,FEW220,0.00,VWS V15.00,2015-03-29 07:20:00,
2015-03-29 03:25:00,17.0,1.1,30.06,WNW,283,3.0,4.0,49,0.00,,FEW220,0.00,VWS V15.00,2015-03-29 07:25:00,
2015-03-29 03:30:00,17.0,1.1,30.07,WNW,284,1.0,2.0,49,0.00,,FEW220,0.00,VWS V15.00,2015-03-29 07:30:00,
2015-03-29 03:35:00,17.0,1.1,30.06,WNW,284,2.0,3.0,49,0.00,,FEW220,0.00,VWS V15.00,2015-03-29 07:35:00,
2015-03-29 03:40:00,17.1,1.2,30.06,WNW,284,1.0,1.0,49,0.00,,FEW220,0.00,VWS V15.00,2015-03-29 07:40:00,
2015-03-29 03:45:00,17.1,1.2,30.06,WNW,284,1.0,2.0,49,0.00,,FEW220,0.00,VWS V15.00,2015-03-29 07:45:00,
2015-03-29 03:50:00,17.2,1.8,30.06,WNW,284,1.0,2.0,50,0.00,,FEW220,0.00,VWS V15.00,2015-03-29 07:50:00,
2015-03-29 03:55:00,17.0,1.1,30.07,WNW,284,0.0,2.0,49,0.00,,FEW220,0.00,VWS V15.00,2015-03-29 07:55:00,
2015-03-29 04:00:00,16.8,1.4,30.07,WNW,283,0.0,0.0,50,0.00,,FEW220,0.00,VWS V15.00,2015-03-29 08:00:00,
2015-03-29 04:05:00,16.7,2.1,30.07,WNW,283,2.0,2.0,52,0.00,,FEW220,0.00,VWS V15.00,2015-03-29 08:05:00,
2015-03-29 04:10:00,16.3,2.6,30.07,SW,228,1.0,3.0,54,0.00,,FEW220,0.00,VWS V15.00,2015-03-29 08:10:00,
2015-03-29 04:15:00,16.0,1.5,30.07,WSW,254,1.0,7.0,52,0.00,,FEW220,0.00,VWS V15.00,2015-03-29 08:15:00,
2015-03-29 04:21:00,16.1,2.4,30.07,WSW,254,2.0,4.0,54,0.00,,FEW220,0.00,VWS V15.00,2015-03-29 08:21:00,
2015-03-29 04:26:00,16.0,1.9,30.07,WSW,254,1.0,4.0,53,0.00,,FEW220,0.00,VWS V15.00,2015-03-29 08:26:00,
2015-03-29 04:31:00,16.0,1.9,30.07,WSW,254,1.0,3.0,53,0.00,,FEW220,0.00,VWS V15.00,2015-03-29 08:31:00,
2015-03-29 04:36:00,15.9,1.8,30.07,WNW,285,2.0,5.0,53,0.00,,FEW220,0.00,VWS V15.00,2015-03-29 08:36:00,
2015-03-29 04:41:00,15.8,1.7,30.07,WNW,284,2.0,4.0,53,0.00,,FEW220,0.00,VWS V15.00,2015-03-29 08:41:00,
2015-03-29 04:46:00,15.6,1.5,30.07,West,279,2.0,4.0,53,0.00,,FEW220,0.00,VWS V15.00,2015-03-29 08:46:00,
2015-03-29 04:51:00,15.5,1.4,30.07,West,269,2.0,4.0,53,0.00,,FEW220,0.00,VWS V15.00,2015-03-29 08:51:00,
2015-03-29 04:56:00,15.4,1.3,30.07,WNW,286,3.0,4.0,53,0.00,,FEW220,0.00,VWS V15.00,2015-03-29 08:56:00,
2015-03-29 05:01:00,15.3,1.6,30.07,WNW,288,2.0,5.0,54,0.00,,FEW220,0.00,VWS V15.00,2015-03-29 09:01:00,
2015-03-29 05:06:00,15.0,1.0,30.08,WNW,284,2.0,5.0,53,0.00,,FEW220,0.00,VWS V15.00,2015-03-29 09:06:00,
2015-03-29 05:11:00,14.9,1.3,30.08,WNW,285,2.0,3.0,54,0.00,,FEW220,0.00,VWS V15.00,2015-03-29 09:11:00,
2015-03-29 05:16:00,14.7,1.5,30.08,WNW,285,2.0,4.0,55,0.00,,FEW220,0.00,VWS V15.00,2015-03-29 09:16:00,
2015-03-29 05:21:00,14.5,1.3,30.08,WNW,287,2.0,3.0,55,0.00,,FEW220,0.00,VWS V15.00,2015-03-29 09:21:00,
2015-03-29 05:26:00,14.4,1.2,30.08,WNW,287,4.0,4.0,55,0.00,,FEW220,0.00,VWS V15.00,2015-03-29 09:26:00,
2015-03-29 05:31:00,14.4,1.2,30.08,WNW,287,2.0,3.0,55,0.00,,FEW220,0.00,VWS V15.00,2015-03-29 09:31:00,
2015-03-29 05:36:00,14.4,1.2,30.08,WNW,290,4.0,5.0,55,0.00,,FEW220,0.00,VWS V15.00,2015-03-29 09:36:00,
2015-03-29 05:41:00,14.5,1.3,30.09,WNW,290,2.0,2.0,55,0.00,,FEW220,0.00,VWS V15.00,2015-03-29 09:41:00,